Barlow, Oregon
Current Conditions -  °F | °C
As of 12:53 PM on Saturday 25 Oct 2014 (Local Time) from KUAO Reporting Station
Overcast Overcast  
Wind Chill: 63°   Ceiling: 6000
Heat Index: 63°   Visibility: 10mi
Dew Point: 50°   Wind: 15mph
Humidity: 63%   Direction: 180°S
Pressure: 29.4"   Gusts: 25mph
Location:  45.2216°N, 122.669°W
Report Text: KUAO 251953Z AUTO 18013G22KT 10SM BKN060 OVC080 17/10 A2940 RMK AO2 PK WND 19029/1903 RAB22E48 SLP956 P0000 T01720100 $
Loading
Personal Weather Stations






























Interactive Weather Map
Tropical Storm Tracking
New forecast layout! Learn more

10-Day Weather Forecast

Advertisements
Track Severe Weather on mobile